Terminal Aerodrome Forecast
Issued by NWS Cleveland, OH

Home | Current Version | Previous Version | Graphics & Text | Print | Product List | Glossary On
Versions: 1 2 3 4 5 6 7 8 9 10 11 12 13
000
FTUS41 KCLE 191739 AAA
TAFERI
TAF AMD
KERI 191739Z 1918/2018 15008KT P6SM FEW035 BKN200
     FM192000 01008KT P6SM FEW040 BKN200
     FM192300 05007KT P6SM SCT150 BKN200
     FM200400 11005KT P6SM FEW040 BKN150
     FM201600 03005KT P6SM FEW035 BKN150=

USA.gov is the U.S. government's official web portal to all federal, state and local government web resources and services.